sensor_id;sensor_type;location;lat;lon;timestamp;P1;durP1;ratioP1;P2;durP2;ratioP2
1799;SDS011;919;48.274;12.292;2024-03-02T00:00:44;27.60;;;19.13;;
1799;SDS011;919;48.274;12.292;2024-03-02T00:03:14;24.97;;;17.03;;
1799;SDS011;919;48.274;12.292;2024-03-02T00:05:41;26.27;;;19.80;;
1799;SDS011;919;48.274;12.292;2024-03-02T00:08:08;35.87;;;20.70;;
1799;SDS011;919;48.274;12.292;2024-03-02T00:10:37;26.40;;;17.80;;
1799;SDS011;919;48.274;12.292;2024-03-02T00:13:05;24.10;;;16.27;;
1799;SDS011;919;48.274;12.292;2024-03-02T00:15:39;22.60;;;16.07;;
1799;SDS011;919;48.274;12.292;2024-03-02T00:18:08;25.13;;;16.10;;
1799;SDS011;919;48.274;12.292;2024-03-02T00:20:36;24.57;;;16.27;;
1799;SDS011;919;48.274;12.292;2024-03-02T00:23:04;24.13;;;17.23;;
1799;SDS011;919;48.274;12.292;2024-03-02T00:25:40;22.07;;;15.83;;
1799;SDS011;919;48.274;12.292;2024-03-02T00:28:14;24.07;;;16.20;;
1799;SDS011;919;48.274;12.292;2024-03-02T00:30:55;27.60;;;19.40;;
1799;SDS011;919;48.274;12.292;2024-03-02T00:33:25;24.50;;;16.70;;
1799;SDS011;919;48.274;12.292;2024-03-02T00:35:54;24.80;;;18.07;;
1799;SDS011;919;48.274;12.292;2024-03-02T00:38:21;56.50;;;21.40;;
1799;SDS011;919;48.274;12.292;2024-03-02T00:40:50;46.87;;;21.00;;
1799;SDS011;919;48.274;12.292;2024-03-02T00:43:35;21.87;;;17.83;;
1799;SDS011;919;48.274;12.292;2024-03-02T00:46:08;23.50;;;16.63;;
1799;SDS011;919;48.274;12.292;2024-03-02T00:48:35;35.13;;;20.40;;
1799;SDS011;919;48.274;12.292;2024-03-02T00:51:02;27.60;;;19.17;;
1799;SDS011;919;48.274;12.292;2024-03-02T00:53:29;30.60;;;19.60;;
1799;SDS011;919;48.274;12.292;2024-03-02T00:55:58;30.80;;;21.50;;
1799;SDS011;919;48.274;12.292;2024-03-02T00:58:25;28.00;;;20.70;;
1799;SDS011;919;48.274;12.292;2024-03-02T01:00:52;79.33;;;21.43;;
1799;SDS011;919;48.274;12.292;2024-03-02T01:03:19;25.83;;;19.73;;
1799;SDS011;919;48.274;12.292;2024-03-02T01:05:46;30.03;;;19.87;;
1799;SDS011;919;48.274;12.292;2024-03-02T01:08:12;23.17;;;18.07;;
1799;SDS011;919;48.274;12.292;2024-03-02T01:10:39;36.60;;;20.07;;
1799;SDS011;919;48.274;12.292;2024-03-02T01:13:07;41.80;;;19.83;;
1799;SDS011;919;48.274;12.292;2024-03-02T01:15:34;24.30;;;18.47;;
1799;SDS011;919;48.274;12.292;2024-03-02T01:18:01;30.23;;;19.33;;
1799;SDS011;919;48.274;12.292;2024-03-02T01:20:28;23.20;;;17.80;;
1799;SDS011;919;48.274;12.292;2024-03-02T01:22:54;27.20;;;18.60;;
1799;SDS011;919;48.274;12.292;2024-03-02T01:25:21;28.93;;;18.40;;
1799;SDS011;919;48.274;12.292;2024-03-02T01:27:48;28.43;;;18.30;;
1799;SDS011;919;48.274;12.292;2024-03-02T01:30:16;34.73;;;19.53;;
1799;SDS011;919;48.274;12.292;2024-03-02T01:32:43;23.97;;;16.63;;
1799;SDS011;919;48.274;12.292;2024-03-02T01:35:09;27.30;;;18.70;;
1799;SDS011;919;48.274;12.292;2024-03-02T01:37:36;56.87;;;18.97;;
1799;SDS011;919;48.274;12.292;2024-03-02T01:40:03;23.33;;;16.87;;
1799;SDS011;919;48.274;12.292;2024-03-02T01:42:34;27.73;;;19.73;;
1799;SDS011;919;48.274;12.292;2024-03-02T01:45:01;32.03;;;18.50;;
1799;SDS011;919;48.274;12.292;2024-03-02T01:47:30;42.83;;;18.10;;
1799;SDS011;919;48.274;12.292;2024-03-02T01:49:57;38.10;;;18.93;;
1799;SDS011;919;48.274;12.292;2024-03-02T01:52:24;25.93;;;17.00;;
1799;SDS011;919;48.274;12.292;2024-03-02T01:54:51;34.80;;;19.50;;
1799;SDS011;919;48.274;12.292;2024-03-02T01:57:18;51.43;;;18.67;;
1799;SDS011;919;48.274;12.292;2024-03-02T01:59:45;33.17;;;19.03;;
1799;SDS011;919;48.274;12.292;2024-03-02T02:02:13;34.47;;;17.13;;
1799;SDS011;919;48.274;12.292;2024-03-02T02:04:41;33.10;;;16.93;;
1799;SDS011;919;48.274;12.292;2024-03-02T02:07:09;31.00;;;18.07;;
1799;SDS011;919;48.274;12.292;2024-03-02T02:09:36;25.40;;;16.83;;
1799;SDS011;919;48.274;12.292;2024-03-02T02:12:03;40.67;;;17.77;;
1799;SDS011;919;48.274;12.292;2024-03-02T02:14:31;24.97;;;16.40;;
1799;SDS011;919;48.274;12.292;2024-03-02T02:16:58;25.67;;;16.73;;
1799;SDS011;919;48.274;12.292;2024-03-02T02:19:25;26.97;;;16.03;;
1799;SDS011;919;48.274;12.292;2024-03-02T02:21:53;29.37;;;15.30;;
1799;SDS011;919;48.274;12.292;2024-03-02T02:24:20;28.03;;;16.80;;
1799;SDS011;919;48.274;12.292;2024-03-02T02:26:47;31.07;;;15.43;;
1799;SDS011;919;48.274;12.292;2024-03-02T02:29:13;21.67;;;15.57;;
1799;SDS011;919;48.274;12.292;2024-03-02T02:31:40;117.20;;;19.53;;
1799;SDS011;919;48.274;12.292;2024-03-02T02:34:07;41.27;;;15.70;;
1799;SDS011;919;48.274;12.292;2024-03-02T02:36:35;27.03;;;13.70;;
1799;SDS011;919;48.274;12.292;2024-03-02T02:39:04;22.00;;;14.40;;
1799;SDS011;919;48.274;12.292;2024-03-02T02:41:33;24.97;;;15.20;;
1799;SDS011;919;48.274;12.292;2024-03-02T02:43:59;24.20;;;13.97;;
1799;SDS011;919;48.274;12.292;2024-03-02T02:46:26;30.77;;;14.33;;
1799;SDS011;919;48.274;12.292;2024-03-02T02:48:53;44.70;;;16.43;;
1799;SDS011;919;48.274;12.292;2024-03-02T02:51:20;20.40;;;13.10;;
1799;SDS011;919;48.274;12.292;2024-03-02T02:53:46;17.67;;;13.20;;
1799;SDS011;919;48.274;12.292;2024-03-02T02:56:14;18.73;;;14.80;;
1799;SDS011;919;48.274;12.292;2024-03-02T02:58:41;21.03;;;14.80;;
1799;SDS011;919;48.274;12.292;2024-03-02T03:01:08;24.40;;;14.90;;
1799;SDS011;919;48.274;12.292;2024-03-02T03:03:35;19.20;;;13.93;;
1799;SDS011;919;48.274;12.292;2024-03-02T03:06:01;19.23;;;15.37;;
1799;SDS011;919;48.274;12.292;2024-03-02T03:08:28;17.30;;;13.10;;
1799;SDS011;919;48.274;12.292;2024-03-02T03:10:55;16.73;;;13.20;;
1799;SDS011;919;48.274;12.292;2024-03-02T03:13:23;19.70;;;14.63;;
1799;SDS011;919;48.274;12.292;2024-03-02T03:15:50;16.93;;;12.97;;
1799;SDS011;919;48.274;12.292;2024-03-02T03:18:17;18.00;;;12.97;;
1799;SDS011;919;48.274;12.292;2024-03-02T03:20:43;20.60;;;14.00;;
1799;SDS011;919;48.274;12.292;2024-03-02T03:23:10;15.47;;;12.57;;
1799;SDS011;919;48.274;12.292;2024-03-02T03:25:40;13.50;;;11.83;;
1799;SDS011;919;48.274;12.292;2024-03-02T03:28:07;21.20;;;14.20;;
1799;SDS011;919;48.274;12.292;2024-03-02T03:30:36;17.07;;;14.27;;
1799;SDS011;919;48.274;12.292;2024-03-02T03:33:03;15.40;;;13.10;;
1799;SDS011;919;48.274;12.292;2024-03-02T03:35:30;15.73;;;11.87;;
1799;SDS011;919;48.274;12.292;2024-03-02T03:37:57;17.00;;;13.80;;
1799;SDS011;919;48.274;12.292;2024-03-02T03:40:24;13.97;;;11.90;;
1799;SDS011;919;48.274;12.292;2024-03-02T03:42:51;18.93;;;13.63;;
1799;SDS011;919;48.274;12.292;2024-03-02T03:45:18;21.77;;;14.30;;
1799;SDS011;919;48.274;12.292;2024-03-02T03:47:46;17.20;;;12.63;;
1799;SDS011;919;48.274;12.292;2024-03-02T03:50:13;19.60;;;14.90;;
1799;SDS011;919;48.274;12.292;2024-03-02T03:52:40;19.40;;;14.67;;
1799;SDS011;919;48.274;12.292;2024-03-02T03:55:07;18.63;;;14.03;;
1799;SDS011;919;48.274;12.292;2024-03-02T03:57:35;22.50;;;14.50;;
1799;SDS011;919;48.274;12.292;2024-03-02T04:00:02;20.37;;;13.37;;
1799;SDS011;919;48.274;12.292;2024-03-02T04:02:29;19.60;;;13.70;;
1799;SDS011;919;48.274;12.292;2024-03-02T04:04:57;19.03;;;14.20;;
1799;SDS011;919;48.274;12.292;2024-03-02T04:07:24;18.10;;;14.33;;
1799;SDS011;919;48.274;12.292;2024-03-02T04:09:51;17.70;;;13.57;;
1799;SDS011;919;48.274;12.292;2024-03-02T04:12:17;17.63;;;14.40;;
1799;SDS011;919;48.274;12.292;2024-03-02T04:14:44;26.70;;;17.23;;
1799;SDS011;919;48.274;12.292;2024-03-02T04:17:11;28.37;;;18.03;;
1799;SDS011;919;48.274;12.292;2024-03-02T04:19:38;25.27;;;17.17;;
1799;SDS011;919;48.274;12.292;2024-03-02T04:22:06;27.40;;;18.53;;
1799;SDS011;919;48.274;12.292;2024-03-02T04:24:33;23.23;;;15.37;;
1799;SDS011;919;48.274;12.292;2024-03-02T04:26:59;26.70;;;16.87;;
1799;SDS011;919;48.274;12.292;2024-03-02T04:29:27;27.63;;;16.53;;
1799;SDS011;919;48.274;12.292;2024-03-02T04:31:54;24.07;;;16.70;;
1799;SDS011;919;48.274;12.292;2024-03-02T04:34:20;24.70;;;16.20;;
1799;SDS011;919;48.274;12.292;2024-03-02T04:36:47;24.33;;;15.20;;
1799;SDS011;919;48.274;12.292;2024-03-02T04:39:16;22.67;;;15.10;;
1799;SDS011;919;48.274;12.292;2024-03-02T04:41:43;24.13;;;15.87;;
1799;SDS011;919;48.274;12.292;2024-03-02T04:44:09;19.17;;;13.70;;
1799;SDS011;919;48.274;12.292;2024-03-02T04:46:36;20.90;;;14.30;;
1799;SDS011;919;48.274;12.292;2024-03-02T04:49:03;21.67;;;15.00;;
1799;SDS011;919;48.274;12.292;2024-03-02T04:51:29;23.10;;;16.53;;
1799;SDS011;919;48.274;12.292;2024-03-02T04:53:56;23.53;;;15.70;;
1799;SDS011;919;48.274;12.292;2024-03-02T04:56:24;25.00;;;15.20;;
1799;SDS011;919;48.274;12.292;2024-03-02T04:59:08;21.30;;;15.00;;
1799;SDS011;919;48.274;12.292;2024-03-02T05:01:35;23.97;;;14.70;;
1799;SDS011;919;48.274;12.292;2024-03-02T05:04:02;24.27;;;15.50;;
1799;SDS011;919;48.274;12.292;2024-03-02T05:06:28;24.80;;;16.47;;
1799;SDS011;919;48.274;12.292;2024-03-02T05:08:56;21.50;;;15.57;;
1799;SDS011;919;48.274;12.292;2024-03-02T05:11:22;21.27;;;13.70;;
1799;SDS011;919;48.274;12.292;2024-03-02T05:14:24;28.83;;;17.43;;
1799;SDS011;919;48.274;12.292;2024-03-02T05:16:50;20.03;;;12.97;;
1799;SDS011;919;48.274;12.292;2024-03-02T05:19:16;21.47;;;14.27;;
1799;SDS011;919;48.274;12.292;2024-03-02T05:21:43;23.33;;;14.93;;
1799;SDS011;919;48.274;12.292;2024-03-02T05:24:10;19.67;;;13.73;;
1799;SDS011;919;48.274;12.292;2024-03-02T05:26:38;20.07;;;15.20;;
1799;SDS011;919;48.274;12.292;2024-03-02T05:29:05;21.00;;;14.50;;
1799;SDS011;919;48.274;12.292;2024-03-02T05:31:32;17.20;;;14.50;;
1799;SDS011;919;48.274;12.292;2024-03-02T05:33:58;20.50;;;14.27;;
1799;SDS011;919;48.274;12.292;2024-03-02T05:36:25;16.77;;;12.80;;
1799;SDS011;919;48.274;12.292;2024-03-02T05:38:52;22.70;;;13.80;;
1799;SDS011;919;48.274;12.292;2024-03-02T05:41:19;21.50;;;14.37;;
1799;SDS011;919;48.274;12.292;2024-03-02T05:43:47;20.50;;;15.13;;
1799;SDS011;919;48.274;12.292;2024-03-02T05:46:14;19.63;;;13.60;;
1799;SDS011;919;48.274;12.292;2024-03-02T05:48:41;17.27;;;12.87;;
1799;SDS011;919;48.274;12.292;2024-03-02T05:51:08;20.80;;;13.80;;
1799;SDS011;919;48.274;12.292;2024-03-02T05:53:34;22.33;;;14.27;;
1799;SDS011;919;48.274;12.292;2024-03-02T05:56:03;26.03;;;15.47;;
1799;SDS011;919;48.274;12.292;2024-03-02T05:58:30;21.60;;;14.60;;
1799;SDS011;919;48.274;12.292;2024-03-02T06:01:09;25.10;;;15.93;;
1799;SDS011;919;48.274;12.292;2024-03-02T06:03:36;19.10;;;14.20;;
1799;SDS011;919;48.274;12.292;2024-03-02T06:06:03;22.73;;;14.63;;
1799;SDS011;919;48.274;12.292;2024-03-02T06:08:30;22.17;;;14.17;;
1799;SDS011;919;48.274;12.292;2024-03-02T06:10:57;17.00;;;13.17;;
1799;SDS011;919;48.274;12.292;2024-03-02T06:13:24;21.50;;;13.97;;
1799;SDS011;919;48.274;12.292;2024-03-02T06:15:51;18.23;;;13.80;;
1799;SDS011;919;48.274;12.292;2024-03-02T06:18:19;23.63;;;14.40;;
1799;SDS011;919;48.274;12.292;2024-03-02T06:20:46;21.47;;;14.30;;
1799;SDS011;919;48.274;12.292;2024-03-02T06:23:14;21.43;;;13.97;;
1799;SDS011;919;48.274;12.292;2024-03-02T06:25:41;19.97;;;14.50;;
1799;SDS011;919;48.274;12.292;2024-03-02T06:28:07;19.50;;;12.30;;
1799;SDS011;919;48.274;12.292;2024-03-02T06:30:34;21.37;;;13.97;;
1799;SDS011;919;48.274;12.292;2024-03-02T06:33:01;17.00;;;12.67;;
1799;SDS011;919;48.274;12.292;2024-03-02T06:35:30;23.73;;;16.23;;
1799;SDS011;919;48.274;12.292;2024-03-02T06:37:56;20.00;;;14.10;;
1799;SDS011;919;48.274;12.292;2024-03-02T06:40:23;17.20;;;13.67;;
1799;SDS011;919;48.274;12.292;2024-03-02T06:42:50;20.93;;;14.27;;
1799;SDS011;919;48.274;12.292;2024-03-02T06:45:16;17.20;;;12.77;;
1799;SDS011;919;48.274;12.292;2024-03-02T06:47:43;18.87;;;14.00;;
1799;SDS011;919;48.274;12.292;2024-03-02T06:50:10;21.23;;;15.10;;
1799;SDS011;919;48.274;12.292;2024-03-02T06:52:38;19.37;;;14.20;;
1799;SDS011;919;48.274;12.292;2024-03-02T06:55:06;24.10;;;16.17;;
1799;SDS011;919;48.274;12.292;2024-03-02T06:57:33;19.93;;;15.63;;
1799;SDS011;919;48.274;12.292;2024-03-02T06:59:59;22.57;;;14.80;;
1799;SDS011;919;48.274;12.292;2024-03-02T07:02:30;23.13;;;14.20;;
1799;SDS011;919;48.274;12.292;2024-03-02T07:04:57;26.70;;;13.40;;
1799;SDS011;919;48.274;12.292;2024-03-02T07:07:24;21.70;;;13.63;;
1799;SDS011;919;48.274;12.292;2024-03-02T07:09:52;18.43;;;14.40;;
1799;SDS011;919;48.274;12.292;2024-03-02T07:12:19;21.13;;;14.63;;
1799;SDS011;919;48.274;12.292;2024-03-02T07:14:45;21.20;;;15.37;;
1799;SDS011;919;48.274;12.292;2024-03-02T07:17:49;29.60;;;15.30;;
1799;SDS011;919;48.274;12.292;2024-03-02T07:20:15;26.30;;;15.37;;
1799;SDS011;919;48.274;12.292;2024-03-02T07:22:42;25.73;;;17.30;;
1799;SDS011;919;48.274;12.292;2024-03-02T07:25:10;28.53;;;15.60;;
1799;SDS011;919;48.274;12.292;2024-03-02T07:27:37;20.90;;;15.97;;
1799;SDS011;919;48.274;12.292;2024-03-02T07:30:04;34.63;;;16.10;;
1799;SDS011;919;48.274;12.292;2024-03-02T07:32:32;24.60;;;15.73;;
1799;SDS011;919;48.274;12.292;2024-03-02T07:34:58;21.40;;;15.00;;
1799;SDS011;919;48.274;12.292;2024-03-02T07:37:26;29.10;;;17.00;;
1799;SDS011;919;48.274;12.292;2024-03-02T07:39:53;27.47;;;18.13;;
1799;SDS011;919;48.274;12.292;2024-03-02T07:42:21;29.83;;;16.80;;
1799;SDS011;919;48.274;12.292;2024-03-02T07:44:48;27.83;;;16.83;;
1799;SDS011;919;48.274;12.292;2024-03-02T07:47:15;23.90;;;15.57;;
1799;SDS011;919;48.274;12.292;2024-03-02T07:49:41;25.13;;;16.93;;
1799;SDS011;919;48.274;12.292;2024-03-02T07:52:10;25.13;;;16.27;;
1799;SDS011;919;48.274;12.292;2024-03-02T07:54:36;23.67;;;16.27;;
1799;SDS011;919;48.274;12.292;2024-03-02T07:57:03;35.47;;;18.63;;
1799;SDS011;919;48.274;12.292;2024-03-02T07:59:32;47.90;;;19.27;;
1799;SDS011;919;48.274;12.292;2024-03-02T08:01:58;38.37;;;18.27;;
1799;SDS011;919;48.274;12.292;2024-03-02T08:04:25;32.43;;;15.50;;
1799;SDS011;919;48.274;12.292;2024-03-02T08:06:52;32.13;;;16.50;;
1799;SDS011;919;48.274;12.292;2024-03-02T08:09:19;31.83;;;18.17;;
1799;SDS011;919;48.274;12.292;2024-03-02T08:11:46;28.93;;;18.20;;
1799;SDS011;919;48.274;12.292;2024-03-02T08:14:13;28.53;;;17.90;;
1799;SDS011;919;48.274;12.292;2024-03-02T08:16:41;28.97;;;17.30;;
1799;SDS011;919;48.274;12.292;2024-03-02T08:19:08;26.47;;;17.10;;
1799;SDS011;919;48.274;12.292;2024-03-02T08:21:35;27.43;;;16.10;;
1799;SDS011;919;48.274;12.292;2024-03-02T08:24:01;28.60;;;15.67;;
1799;SDS011;919;48.274;12.292;2024-03-02T08:26:29;35.10;;;17.60;;
1799;SDS011;919;48.274;12.292;2024-03-02T08:28:56;25.73;;;16.27;;
1799;SDS011;919;48.274;12.292;2024-03-02T08:31:23;27.37;;;15.33;;
1799;SDS011;919;48.274;12.292;2024-03-02T08:33:51;27.53;;;17.80;;
1799;SDS011;919;48.274;12.292;2024-03-02T08:36:18;33.40;;;17.83;;
1799;SDS011;919;48.274;12.292;2024-03-02T08:38:45;30.93;;;15.77;;
1799;SDS011;919;48.274;12.292;2024-03-02T08:41:12;28.80;;;17.33;;
1799;SDS011;919;48.274;12.292;2024-03-02T08:43:41;30.13;;;18.53;;
1799;SDS011;919;48.274;12.292;2024-03-02T08:46:08;34.03;;;19.70;;
1799;SDS011;919;48.274;12.292;2024-03-02T08:48:35;28.33;;;19.17;;
1799;SDS011;919;48.274;12.292;2024-03-02T08:51:03;30.80;;;17.53;;
1799;SDS011;919;48.274;12.292;2024-03-02T08:53:32;32.60;;;18.97;;
1799;SDS011;919;48.274;12.292;2024-03-02T08:55:59;32.37;;;20.43;;
1799;SDS011;919;48.274;12.292;2024-03-02T08:58:26;36.57;;;21.57;;
1799;SDS011;919;48.274;12.292;2024-03-02T09:00:53;32.10;;;19.40;;
1799;SDS011;919;48.274;12.292;2024-03-02T09:03:19;35.13;;;19.57;;
1799;SDS011;919;48.274;12.292;2024-03-02T09:05:46;36.20;;;21.40;;
1799;SDS011;919;48.274;12.292;2024-03-02T09:08:14;42.03;;;20.43;;
1799;SDS011;919;48.274;12.292;2024-03-02T09:10:41;39.60;;;21.40;;
1799;SDS011;919;48.274;12.292;2024-03-02T09:13:08;42.87;;;22.03;;
1799;SDS011;919;48.274;12.292;2024-03-02T09:15:35;34.70;;;19.23;;
1799;SDS011;919;48.274;12.292;2024-03-02T09:18:04;36.83;;;19.20;;
1799;SDS011;919;48.274;12.292;2024-03-02T09:20:31;40.70;;;20.87;;
1799;SDS011;919;48.274;12.292;2024-03-02T09:22:58;35.23;;;21.00;;
1799;SDS011;919;48.274;12.292;2024-03-02T09:25:26;36.80;;;20.47;;
1799;SDS011;919;48.274;12.292;2024-03-02T09:27:53;34.93;;;21.40;;
1799;SDS011;919;48.274;12.292;2024-03-02T09:30:19;46.70;;;21.60;;
1799;SDS011;919;48.274;12.292;2024-03-02T09:32:46;38.80;;;20.97;;
1799;SDS011;919;48.274;12.292;2024-03-02T09:35:13;34.40;;;20.80;;
1799;SDS011;919;48.274;12.292;2024-03-02T09:37:40;35.00;;;20.20;;
1799;SDS011;919;48.274;12.292;2024-03-02T09:40:07;40.93;;;20.67;;
1799;SDS011;919;48.274;12.292;2024-03-02T09:42:36;36.70;;;21.70;;
1799;SDS011;919;48.274;12.292;2024-03-02T09:45:03;38.97;;;21.03;;
1799;SDS011;919;48.274;12.292;2024-03-02T09:47:31;40.13;;;19.80;;
1799;SDS011;919;48.274;12.292;2024-03-02T09:49:58;35.13;;;19.83;;
1799;SDS011;919;48.274;12.292;2024-03-02T09:52:25;37.60;;;21.60;;
1799;SDS011;919;48.274;12.292;2024-03-02T09:54:52;37.43;;;21.23;;
1799;SDS011;919;48.274;12.292;2024-03-02T09:57:19;40.27;;;21.87;;
1799;SDS011;919;48.274;12.292;2024-03-02T09:59:47;36.70;;;20.97;;
1799;SDS011;919;48.274;12.292;2024-03-02T10:02:13;48.40;;;25.40;;
1799;SDS011;919;48.274;12.292;2024-03-02T10:04:40;41.40;;;22.80;;
1799;SDS011;919;48.274;12.292;2024-03-02T10:07:11;39.77;;;22.90;;
1799;SDS011;919;48.274;12.292;2024-03-02T10:09:39;52.07;;;24.70;;
1799;SDS011;919;48.274;12.292;2024-03-02T10:12:06;42.20;;;22.87;;
1799;SDS011;919;48.274;12.292;2024-03-02T10:14:34;37.83;;;22.50;;
1799;SDS011;919;48.274;12.292;2024-03-02T10:17:03;40.93;;;22.90;;
1799;SDS011;919;48.274;12.292;2024-03-02T10:19:31;39.63;;;22.20;;
1799;SDS011;919;48.274;12.292;2024-03-02T10:21:59;37.30;;;20.70;;
1799;SDS011;919;48.274;12.292;2024-03-02T10:24:28;39.30;;;21.93;;
1799;SDS011;919;48.274;12.292;2024-03-02T10:27:02;35.73;;;21.63;;
1799;SDS011;919;48.274;12.292;2024-03-02T10:29:36;33.47;;;20.57;;
1799;SDS011;919;48.274;12.292;2024-03-02T10:32:06;37.20;;;22.87;;
1799;SDS011;919;48.274;12.292;2024-03-02T10:34:36;35.27;;;19.10;;
1799;SDS011;919;48.274;12.292;2024-03-02T10:37:03;35.90;;;20.77;;
1799;SDS011;919;48.274;12.292;2024-03-02T10:39:31;37.00;;;22.90;;
1799;SDS011;919;48.274;12.292;2024-03-02T10:42:00;41.67;;;22.90;;
1799;SDS011;919;48.274;12.292;2024-03-02T10:44:29;37.57;;;21.77;;
1799;SDS011;919;48.274;12.292;2024-03-02T10:46:57;37.20;;;22.13;;
1799;SDS011;919;48.274;12.292;2024-03-02T10:49:28;37.83;;;22.20;;
1799;SDS011;919;48.274;12.292;2024-03-02T10:51:55;39.03;;;21.97;;
1799;SDS011;919;48.274;12.292;2024-03-02T10:54:22;35.63;;;21.50;;
1799;SDS011;919;48.274;12.292;2024-03-02T10:56:51;41.47;;;24.63;;
1799;SDS011;919;48.274;12.292;2024-03-02T10:59:22;39.17;;;20.97;;
1799;SDS011;919;48.274;12.292;2024-03-02T11:01:53;41.63;;;23.57;;
1799;SDS011;919;48.274;12.292;2024-03-02T11:04:22;40.40;;;21.33;;
1799;SDS011;919;48.274;12.292;2024-03-02T11:06:52;42.80;;;23.67;;
1799;SDS011;919;48.274;12.292;2024-03-02T11:09:25;40.63;;;22.27;;
1799;SDS011;919;48.274;12.292;2024-03-02T11:11:54;39.03;;;22.37;;
1799;SDS011;919;48.274;12.292;2024-03-02T11:14:27;43.67;;;25.67;;
1799;SDS011;919;48.274;12.292;2024-03-02T11:16:57;47.23;;;26.50;;
1799;SDS011;919;48.274;12.292;2024-03-02T11:19:25;38.20;;;24.37;;
1799;SDS011;919;48.274;12.292;2024-03-02T11:21:54;39.70;;;24.00;;
1799;SDS011;919;48.274;12.292;2024-03-02T11:24:28;44.50;;;25.30;;
1799;SDS011;919;48.274;12.292;2024-03-02T11:26:58;40.83;;;26.20;;
1799;SDS011;919;48.274;12.292;2024-03-02T11:29:42;43.83;;;26.73;;
1799;SDS011;919;48.274;12.292;2024-03-02T11:32:13;42.40;;;24.87;;
1799;SDS011;919;48.274;12.292;2024-03-02T11:34:44;44.43;;;26.23;;
1799;SDS011;919;48.274;12.292;2024-03-02T11:37:14;47.00;;;26.77;;
1799;SDS011;919;48.274;12.292;2024-03-02T11:39:41;40.60;;;25.73;;
1799;SDS011;919;48.274;12.292;2024-03-02T11:42:09;40.43;;;24.77;;
1799;SDS011;919;48.274;12.292;2024-03-02T11:44:39;44.77;;;25.33;;
1799;SDS011;919;48.274;12.292;2024-03-02T11:47:08;43.03;;;27.70;;
1799;SDS011;919;48.274;12.292;2024-03-02T11:49:39;38.50;;;24.70;;
1799;SDS011;919;48.274;12.292;2024-03-02T11:52:08;36.30;;;24.40;;
1799;SDS011;919;48.274;12.292;2024-03-02T11:54:37;37.60;;;25.20;;
1799;SDS011;919;48.274;12.292;2024-03-02T11:57:05;37.03;;;24.30;;
1799;SDS011;919;48.274;12.292;2024-03-02T11:59:33;42.53;;;25.23;;
1799;SDS011;919;48.274;12.292;2024-03-02T12:02:00;37.47;;;25.63;;
1799;SDS011;919;48.274;12.292;2024-03-02T12:04:27;36.20;;;24.13;;
1799;SDS011;919;48.274;12.292;2024-03-02T12:06:56;36.27;;;23.43;;
1799;SDS011;919;48.274;12.292;2024-03-02T12:09:25;38.57;;;25.27;;
1799;SDS011;919;48.274;12.292;2024-03-02T12:12:04;36.07;;;25.40;;
1799;SDS011;919;48.274;12.292;2024-03-02T12:14:32;43.63;;;26.40;;
1799;SDS011;919;48.274;12.292;2024-03-02T12:16:59;40.80;;;24.23;;
1799;SDS011;919;48.274;12.292;2024-03-02T12:19:26;37.40;;;23.70;;
1799;SDS011;919;48.274;12.292;2024-03-02T12:21:55;33.63;;;23.37;;
1799;SDS011;919;48.274;12.292;2024-03-02T12:24:22;36.23;;;24.50;;
1799;SDS011;919;48.274;12.292;2024-03-02T12:26:49;35.47;;;23.53;;
1799;SDS011;919;48.274;12.292;2024-03-02T12:29:19;34.47;;;24.97;;
1799;SDS011;919;48.274;12.292;2024-03-02T12:31:47;37.73;;;23.07;;
1799;SDS011;919;48.274;12.292;2024-03-02T12:34:15;37.67;;;23.93;;
1799;SDS011;919;48.274;12.292;2024-03-02T12:36:43;34.80;;;23.20;;
1799;SDS011;919;48.274;12.292;2024-03-02T12:39:12;32.40;;;23.20;;
1799;SDS011;919;48.274;12.292;2024-03-02T12:41:40;33.53;;;23.67;;
1799;SDS011;919;48.274;12.292;2024-03-02T12:44:07;34.90;;;24.00;;
1799;SDS011;919;48.274;12.292;2024-03-02T12:46:36;34.07;;;22.47;;
1799;SDS011;919;48.274;12.292;2024-03-02T12:49:07;34.33;;;23.40;;
1799;SDS011;919;48.274;12.292;2024-03-02T12:51:36;37.97;;;24.67;;
1799;SDS011;919;48.274;12.292;2024-03-02T12:54:05;34.07;;;24.03;;
1799;SDS011;919;48.274;12.292;2024-03-02T12:56:32;32.77;;;21.70;;
1799;SDS011;919;48.274;12.292;2024-03-02T12:58:59;32.40;;;21.97;;
1799;SDS011;919;48.274;12.292;2024-03-02T13:01:26;37.87;;;24.40;;
1799;SDS011;919;48.274;12.292;2024-03-02T13:03:54;36.73;;;24.63;;
1799;SDS011;919;48.274;12.292;2024-03-02T13:06:22;30.20;;;21.63;;
1799;SDS011;919;48.274;12.292;2024-03-02T13:08:52;30.90;;;22.13;;
1799;SDS011;919;48.274;12.292;2024-03-02T13:11:20;32.97;;;22.43;;
1799;SDS011;919;48.274;12.292;2024-03-02T13:13:48;34.00;;;23.50;;
1799;SDS011;919;48.274;12.292;2024-03-02T13:16:15;34.90;;;23.50;;
1799;SDS011;919;48.274;12.292;2024-03-02T13:18:44;34.00;;;22.40;;
1799;SDS011;919;48.274;12.292;2024-03-02T13:21:12;32.10;;;23.53;;
1799;SDS011;919;48.274;12.292;2024-03-02T13:23:39;33.70;;;22.13;;
1799;SDS011;919;48.274;12.292;2024-03-02T13:26:05;33.97;;;22.10;;
1799;SDS011;919;48.274;12.292;2024-03-02T13:28:35;32.97;;;22.40;;
1799;SDS011;919;48.274;12.292;2024-03-02T13:31:02;34.30;;;22.70;;
1799;SDS011;919;48.274;12.292;2024-03-02T13:33:29;31.20;;;22.33;;
1799;SDS011;919;48.274;12.292;2024-03-02T13:35:57;37.03;;;23.60;;
1799;SDS011;919;48.274;12.292;2024-03-02T13:38:26;39.13;;;23.70;;
1799;SDS011;919;48.274;12.292;2024-03-02T13:40:52;33.70;;;21.73;;
1799;SDS011;919;48.274;12.292;2024-03-02T13:43:19;37.67;;;22.40;;
1799;SDS011;919;48.274;12.292;2024-03-02T13:45:47;32.60;;;21.70;;
1799;SDS011;919;48.274;12.292;2024-03-02T13:48:14;31.60;;;21.80;;
1799;SDS011;919;48.274;12.292;2024-03-02T13:50:40;35.43;;;20.90;;
1799;SDS011;919;48.274;12.292;2024-03-02T13:53:07;35.47;;;21.70;;
1799;SDS011;919;48.274;12.292;2024-03-02T13:55:35;34.33;;;21.87;;
1799;SDS011;919;48.274;12.292;2024-03-02T13:58:03;36.20;;;21.10;;
1799;SDS011;919;48.274;12.292;2024-03-02T14:00:30;38.57;;;21.20;;
1799;SDS011;919;48.274;12.292;2024-03-02T14:02:57;31.87;;;21.37;;
1799;SDS011;919;48.274;12.292;2024-03-02T14:05:23;32.83;;;20.57;;
1799;SDS011;919;48.274;12.292;2024-03-02T14:07:50;34.00;;;21.23;;
1799;SDS011;919;48.274;12.292;2024-03-02T14:10:17;28.07;;;17.77;;
1799;SDS011;919;48.274;12.292;2024-03-02T14:12:48;30.00;;;19.53;;
1799;SDS011;919;48.274;12.292;2024-03-02T14:15:15;28.30;;;20.33;;
1799;SDS011;919;48.274;12.292;2024-03-02T14:17:42;29.90;;;19.37;;
1799;SDS011;919;48.274;12.292;2024-03-02T14:20:09;30.20;;;19.03;;
1799;SDS011;919;48.274;12.292;2024-03-02T14:22:37;34.63;;;20.03;;
1799;SDS011;919;48.274;12.292;2024-03-02T14:25:04;29.80;;;18.90;;
1799;SDS011;919;48.274;12.292;2024-03-02T14:27:31;26.40;;;17.50;;
1799;SDS011;919;48.274;12.292;2024-03-02T14:30:00;28.83;;;18.60;;
1799;SDS011;919;48.274;12.292;2024-03-02T14:32:27;28.10;;;18.37;;
1799;SDS011;919;48.274;12.292;2024-03-02T14:34:53;27.10;;;17.13;;
1799;SDS011;919;48.274;12.292;2024-03-02T14:37:20;28.27;;;18.60;;
1799;SDS011;919;48.274;12.292;2024-03-02T14:39:47;34.03;;;19.40;;
1799;SDS011;919;48.274;12.292;2024-03-02T14:42:15;31.13;;;19.87;;
1799;SDS011;919;48.274;12.292;2024-03-02T14:44:42;25.43;;;16.97;;
1799;SDS011;919;48.274;12.292;2024-03-02T14:47:10;28.23;;;18.20;;
1799;SDS011;919;48.274;12.292;2024-03-02T14:49:37;30.17;;;19.17;;
1799;SDS011;919;48.274;12.292;2024-03-02T14:52:05;27.10;;;17.77;;